Time;durP1;ratioP1;P1;durP2;ratioP2;P2;SDS_P1;SDS_P2;PMS_P1;PMS_P2;Temp;Humidity;BMP_temperature;BMP_pressure;BME280_temperature;BME280_humidity;BME280_pressure;Samples;Min_cycle;Max_cycle;Signal;HPM_P1;HPM_P2
2022/07/25 00:00:27;;;;;;;11.90;7.13;;;20.70;99.90;;;;;;5006619;28;20679;-77
2022/07/25 00:02:53;;;;;;;9.43;7.40;;;20.60;99.90;;;;;;5006085;28;20041;-77
2022/07/25 00:05:19;;;;;;;8.30;6.88;;;20.60;99.90;;;;;;5008655;28;20210;-76
2022/07/25 00:07:44;;;;;;;9.43;7.90;;;20.60;99.90;;;;;;4992436;28;20034;-77
2022/07/25 00:10:10;;;;;;;9.23;8.27;;;20.60;99.90;;;;;;5006426;28;20041;-76
2022/07/25 00:12:36;;;;;;;12.32;8.50;;;20.60;99.90;;;;;;5003380;28;20045;-76
2022/07/25 00:15:02;;;;;;;8.27;7.47;;;20.60;99.90;;;;;;5006069;28;20091;-77
2022/07/25 00:17:28;;;;;;;10.30;8.07;;;20.60;99.90;;;;;;4999631;28;20048;-77
2022/07/25 00:19:54;;;;;;;9.05;8.10;;;20.50;99.90;;;;;;5004544;28;20034;-78
2022/07/25 00:22:20;;;;;;;9.48;7.75;;;20.50;99.90;;;;;;5000168;28;20609;-77
2022/07/25 00:24:45;;;;;;;9.77;8.77;;;20.50;99.90;;;;;;5006505;28;20432;-77
2022/07/25 00:27:11;;;;;;;9.93;8.50;;;20.50;99.90;;;;;;4986566;28;20498;-78
2022/07/25 00:29:37;;;;;;;10.70;9.10;;;20.50;99.90;;;;;;5022487;28;20041;-78
2022/07/25 00:32:03;;;;;;;9.95;8.85;;;20.50;99.90;;;;;;5006027;28;20048;-78
2022/07/25 00:34:28;;;;;;;10.60;8.32;;;20.50;99.90;;;;;;5008217;28;20053;-78
2022/07/25 00:36:54;;;;;;;11.70;7.90;;;20.40;99.90;;;;;;5004075;28;20041;-77
2022/07/25 00:39:20;;;;;;;12.05;8.43;;;20.50;99.90;;;;;;5016146;28;20044;-77
2022/07/25 00:41:45;;;;;;;11.57;8.35;;;20.50;99.90;;;;;;5022491;28;20077;-77
2022/07/25 00:44:25;;;;;;;10.15;9.02;;;20.50;99.90;;;;;;4998981;28;20497;-77
2022/07/25 00:46:51;;;;;;;11.00;8.77;;;20.50;99.90;;;;;;5001470;28;20475;-77
2022/07/25 00:49:17;;;;;;;10.40;8.30;;;20.50;99.90;;;;;;5018683;28;20042;-78
2022/07/25 00:51:44;;;;;;;11.20;9.20;;;20.50;99.90;;;;;;4994633;28;20039;-77
2022/07/25 00:54:10;;;;;;;9.68;8.68;;;20.50;99.90;;;;;;5004008;28;20042;-77
2022/07/25 00:56:37;;;;;;;11.95;9.57;;;20.50;99.90;;;;;;5004700;28;20049;-77
2022/07/25 00:59:03;;;;;;;12.90;9.27;;;20.50;99.90;;;;;;4984886;28;20065;-77
2022/07/25 01:01:29;;;;;;;14.48;8.82;;;20.50;99.90;;;;;;4976841;28;20052;-77
2022/07/25 01:03:55;;;;;;;11.27;8.55;;;20.50;99.90;;;;;;4969398;28;20117;-77
2022/07/25 01:06:21;;;;;;;11.75;9.48;;;20.50;99.90;;;;;;5003264;28;20045;-78
2022/07/25 01:08:47;;;;;;;13.57;9.25;;;20.40;99.90;;;;;;5000985;28;20038;-77
2022/07/25 01:11:13;;;;;;;10.88;9.32;;;20.40;99.90;;;;;;5003779;28;20329;-77
2022/07/25 01:13:40;;;;;;;11.80;9.07;;;20.40;99.90;;;;;;5013689;28;20037;-78
2022/07/25 01:16:06;;;;;;;12.35;9.25;;;20.30;99.90;;;;;;5004465;28;20041;-78
2022/07/25 01:18:33;;;;;;;11.15;8.85;;;20.30;99.90;;;;;;4998013;28;20122;-79
2022/07/25 01:20:59;;;;;;;10.52;9.32;;;20.30;99.90;;;;;;5005689;28;20037;-77
2022/07/25 01:23:25;;;;;;;10.55;9.45;;;20.30;99.90;;;;;;5014080;28;20045;-77
2022/07/25 01:25:51;;;;;;;11.60;9.15;;;20.30;99.90;;;;;;5018516;28;20038;-77
2022/07/25 01:28:17;;;;;;;10.40;8.73;;;20.20;99.90;;;;;;5002184;28;20087;-78
2022/07/25 01:30:43;;;;;;;11.63;9.77;;;20.30;99.90;;;;;;5004794;28;20053;-78
2022/07/25 01:33:09;;;;;;;12.93;9.77;;;20.20;99.90;;;;;;5005705;28;20048;-77
2022/07/25 01:35:35;;;;;;;12.38;9.45;;;20.20;99.90;;;;;;5002721;28;20563;-78
2022/07/25 01:38:00;;;;;;;15.32;9.20;;;20.20;99.90;;;;;;4999538;28;20054;-77
2022/07/25 01:40:26;;;;;;;12.85;9.07;;;20.20;99.90;;;;;;5005430;28;20048;-77
2022/07/25 01:42:52;;;;;;;11.65;9.05;;;20.20;99.90;;;;;;4984268;28;20485;-77
2022/07/25 01:45:18;;;;;;;12.07;9.20;;;20.20;99.90;;;;;;4997629;28;20038;-78
2022/07/25 01:47:43;;;;;;;12.55;9.70;;;20.20;99.90;;;;;;4999008;28;20079;-78
2022/07/25 01:50:12;;;;;;;14.15;9.55;;;20.20;99.90;;;;;;4982679;28;20395;-78
2022/07/25 01:52:38;;;;;;;14.48;10.48;;;20.20;99.90;;;;;;5000092;28;20041;-77
2022/07/25 01:55:04;;;;;;;11.90;9.90;;;20.20;99.90;;;;;;4987172;28;20034;-77
2022/07/25 01:57:30;;;;;;;13.93;10.07;;;20.20;99.90;;;;;;4985801;28;20049;-78
2022/07/25 01:59:56;;;;;;;12.93;10.93;;;20.20;99.90;;;;;;5017536;28;20048;-78
2022/07/25 02:02:22;;;;;;;12.43;9.90;;;20.20;99.90;;;;;;4968733;28;20034;-78
2022/07/25 02:04:47;;;;;;;14.95;10.18;;;20.20;99.90;;;;;;5014658;28;20076;-77
2022/07/25 02:07:13;;;;;;;12.75;11.27;;;20.20;99.90;;;;;;5000874;28;20100;-77
2022/07/25 02:09:40;;;;;;;13.52;10.27;;;20.20;99.90;;;;;;4986580;28;20037;-77
2022/07/25 02:12:06;;;;;;;14.40;10.63;;;20.20;99.90;;;;;;5003162;28;20042;-77
2022/07/25 02:14:32;;;;;;;14.40;10.98;;;20.20;99.90;;;;;;4998601;28;20037;-77
2022/07/25 02:16:58;;;;;;;15.00;10.77;;;20.20;99.90;;;;;;4997324;28;20037;-77
2022/07/25 02:19:24;;;;;;;12.80;10.90;;;20.20;99.90;;;;;;5018597;28;20033;-77
2022/07/25 02:21:50;;;;;;;15.45;11.55;;;20.20;99.90;;;;;;4999977;28;20034;-77
2022/07/25 02:24:16;;;;;;;12.32;11.05;;;20.10;99.90;;;;;;4984875;28;20180;-77
2022/07/25 02:26:41;;;;;;;14.57;11.15;;;20.10;99.90;;;;;;5013761;28;20564;-78
2022/07/25 02:29:07;;;;;;;11.38;10.18;;;20.10;99.90;;;;;;5002438;28;20507;-77
2022/07/25 02:31:33;;;;;;;14.90;10.60;;;20.10;99.90;;;;;;5009628;28;20060;-77
2022/07/25 02:33:58;;;;;;;14.77;11.02;;;20.10;99.90;;;;;;4986174;28;20056;-77
2022/07/25 02:36:24;;;;;;;12.77;11.18;;;20.10;99.90;;;;;;4978297;28;20045;-78
2022/07/25 02:38:50;;;;;;;12.57;11.25;;;20.00;99.90;;;;;;4998015;28;20048;-77
2022/07/25 02:41:16;;;;;;;14.85;10.85;;;20.00;99.90;;;;;;5003379;28;20040;-78
2022/07/25 02:43:42;;;;;;;13.50;11.25;;;20.00;99.90;;;;;;5005512;28;20037;-78
2022/07/25 02:46:07;;;;;;;13.25;11.63;;;20.00;99.90;;;;;;5000633;28;20049;-78
2022/07/25 02:48:33;;;;;;;11.15;9.95;;;20.00;99.90;;;;;;5014609;28;20484;-77
2022/07/25 02:50:59;;;;;;;12.50;10.45;;;20.00;99.90;;;;;;5011877;28;20418;-78
2022/07/25 02:53:24;;;;;;;10.95;9.88;;;19.90;99.90;;;;;;4986651;28;20517;-77
2022/07/25 02:55:50;;;;;;;13.40;11.02;;;20.00;99.90;;;;;;5004847;28;20037;-78
2022/07/25 02:58:16;;;;;;;13.70;10.48;;;19.90;99.90;;;;;;4993547;28;20063;-78
2022/07/25 03:00:41;;;;;;;12.02;10.43;;;19.90;99.90;;;;;;4985004;28;20045;-78
2022/07/25 03:03:07;;;;;;;11.70;10.05;;;19.90;99.90;;;;;;4986854;28;20386;-77
2022/07/25 03:05:33;;;;;;;12.77;10.07;;;19.90;99.90;;;;;;4983648;28;20121;-77
2022/07/25 03:07:59;;;;;;;12.57;11.27;;;19.90;99.90;;;;;;4982983;28;20392;-77
2022/07/25 03:10:24;;;;;;;12.02;9.63;;;19.90;99.90;;;;;;5002645;28;20033;-78
2022/07/25 03:12:50;;;;;;;12.38;10.25;;;19.90;99.90;;;;;;5019198;28;20084;-77
2022/07/25 03:15:16;;;;;;;12.05;9.95;;;19.80;99.90;;;;;;4989896;28;20037;-78
2022/07/25 03:17:42;;;;;;;13.00;10.30;;;19.80;99.90;;;;;;4984748;28;20042;-78
2022/07/25 03:20:08;;;;;;;16.67;10.52;;;19.80;99.90;;;;;;5001196;28;20660;-77
2022/07/25 03:22:34;;;;;;;13.55;10.63;;;19.80;99.90;;;;;;5016695;28;20046;-78
2022/07/25 03:25:00;;;;;;;13.38;10.43;;;19.80;99.90;;;;;;4985139;28;20053;-78
2022/07/25 03:27:26;;;;;;;13.55;11.02;;;19.70;99.90;;;;;;5018831;28;20053;-78
2022/07/25 03:29:53;;;;;;;12.40;11.10;;;19.70;99.90;;;;;;5003447;28;20037;-78
2022/07/25 03:32:19;;;;;;;13.63;11.05;;;19.70;99.90;;;;;;4992616;28;20041;-78
2022/07/25 03:34:44;;;;;;;14.25;11.98;;;19.60;99.90;;;;;;5005842;28;20048;-78
2022/07/25 03:37:10;;;;;;;14.43;12.93;;;19.60;99.90;;;;;;4989106;28;20497;-78
2022/07/25 03:39:36;;;;;;;12.70;11.40;;;19.60;99.90;;;;;;5002555;28;20049;-77
2022/07/25 03:42:02;;;;;;;14.50;12.60;;;19.60;99.90;;;;;;5023204;28;20422;-78
2022/07/25 03:44:28;;;;;;;16.60;13.43;;;19.60;99.90;;;;;;5002737;28;20044;-78
2022/07/25 03:46:54;;;;;;;13.75;11.95;;;19.60;99.90;;;;;;5004701;28;20037;-78
2022/07/25 03:49:19;;;;;;;16.25;12.85;;;19.60;99.90;;;;;;5003940;28;20616;-78
2022/07/25 03:51:45;;;;;;;15.45;13.35;;;19.60;99.90;;;;;;5004372;28;20042;-78
2022/07/25 03:54:14;;;;;;;16.15;12.93;;;19.50;99.90;;;;;;4993760;28;20518;-78
2022/07/25 03:56:42;;;;;;;19.40;14.68;;;19.50;99.90;;;;;;4980693;28;20053;-78
2022/07/25 03:59:10;;;;;;;17.10;13.73;;;19.50;99.90;;;;;;5001708;28;20077;-78
2022/07/25 04:01:36;;;;;;;18.35;14.82;;;19.50;99.90;;;;;;4980961;28;20119;-78
2022/07/25 04:04:02;;;;;;;17.35;14.48;;;19.50;99.90;;;;;;4994711;28;20034;-78
2022/07/25 04:06:28;;;;;;;16.85;13.27;;;19.50;99.90;;;;;;5003369;28;20151;-78
2022/07/25 04:08:54;;;;;;;16.98;13.80;;;19.50;99.90;;;;;;4994709;28;20510;-78
2022/07/25 04:11:21;;;;;;;17.25;13.73;;;19.50;99.90;;;;;;4995552;28;20046;-78
2022/07/25 04:13:47;;;;;;;16.88;13.55;;;19.40;99.90;;;;;;4997763;28;20523;-79
2022/07/25 04:16:13;;;;;;;14.68;12.65;;;19.40;99.90;;;;;;4980435;28;20124;-79
2022/07/25 04:18:40;;;;;;;16.27;12.23;;;19.40;99.90;;;;;;4998335;28;20045;-79
2022/07/25 04:21:06;;;;;;;15.80;12.88;;;19.50;99.90;;;;;;4997888;28;20068;-79
2022/07/25 04:23:32;;;;;;;13.43;11.55;;;19.40;99.90;;;;;;4998225;28;20534;-79
2022/07/25 04:25:58;;;;;;;16.00;12.05;;;19.50;99.90;;;;;;4993652;28;20034;-80
2022/07/25 04:28:24;;;;;;;15.88;12.00;;;19.50;99.90;;;;;;4984627;28;20573;-79
2022/07/25 04:30:50;;;;;;;17.25;11.80;;;19.50;99.90;;;;;;5006551;28;20510;-79
2022/07/25 04:33:16;;;;;;;15.10;11.88;;;19.50;99.90;;;;;;5000781;28;20046;-80
2022/07/25 04:35:42;;;;;;;14.00;12.15;;;19.50;99.90;;;;;;4993967;28;20116;-80
2022/07/25 04:38:08;;;;;;;15.05;12.13;;;19.50;99.90;;;;;;4995330;28;20125;-80
2022/07/25 04:40:33;;;;;;;14.77;12.20;;;19.50;99.90;;;;;;4999502;28;20042;-80
2022/07/25 04:42:59;;;;;;;15.88;12.30;;;19.50;99.90;;;;;;4995679;28;20037;-80
2022/07/25 04:45:25;;;;;;;16.85;12.45;;;19.60;99.90;;;;;;4998331;28;20033;-80
2022/07/25 04:47:51;;;;;;;14.43;11.95;;;19.60;99.90;;;;;;4980613;28;20064;-80
2022/07/25 04:50:16;;;;;;;14.75;12.20;;;19.70;99.90;;;;;;4985986;28;20116;-80
2022/07/25 04:52:43;;;;;;;13.38;11.95;;;19.70;99.90;;;;;;5018923;28;20066;-80
2022/07/25 04:55:09;;;;;;;14.98;12.38;;;19.80;99.90;;;;;;4999544;28;20600;-80
2022/07/25 04:57:35;;;;;;;18.85;12.55;;;19.80;99.90;;;;;;5006473;28;20514;-81
2022/07/25 05:00:06;;;;;;;14.48;11.63;;;19.90;99.90;;;;;;5002980;28;20086;-80
2022/07/25 05:02:32;;;;;;;14.75;12.10;;;19.90;99.90;;;;;;5002234;28;20556;-80
2022/07/25 05:04:58;;;;;;;14.20;11.18;;;20.00;99.90;;;;;;5020799;28;20062;-80
2022/07/25 05:07:24;;;;;;;14.38;11.65;;;20.10;99.90;;;;;;4987395;28;20502;-80
2022/07/25 05:09:49;;;;;;;13.82;11.73;;;20.10;99.90;;;;;;5005026;28;20112;-80
2022/07/25 05:12:15;;;;;;;15.80;12.00;;;20.20;99.90;;;;;;4984447;28;20486;-80
2022/07/25 05:14:41;;;;;;;12.90;11.55;;;20.20;99.90;;;;;;4991267;28;20114;-80
2022/07/25 05:17:09;;;;;;;13.38;11.85;;;20.20;99.90;;;;;;5014928;28;20490;-80
2022/07/25 05:19:35;;;;;;;14.68;10.95;;;20.30;99.90;;;;;;5005664;28;20047;-80
2022/07/25 05:22:01;;;;;;;16.67;11.98;;;20.30;99.90;;;;;;4996179;28;20033;-80
2022/07/25 05:24:27;;;;;;;15.43;11.10;;;20.40;99.90;;;;;;5002629;28;20508;-79
2022/07/25 05:26:53;;;;;;;12.82;11.45;;;20.40;99.90;;;;;;5005449;28;20049;-79
2022/07/25 05:29:19;;;;;;;18.92;11.25;;;20.40;99.90;;;;;;4994952;28;20077;-79
2022/07/25 05:31:44;;;;;;;15.02;11.27;;;20.50;99.90;;;;;;5003292;28;20706;-79
2022/07/25 05:34:10;;;;;;;14.55;11.15;;;20.50;99.90;;;;;;5000638;28;20041;-80
2022/07/25 05:36:36;;;;;;;14.77;10.95;;;20.60;99.90;;;;;;5002699;28;20049;-80
2022/07/25 05:39:02;;;;;;;11.82;10.57;;;20.60;99.90;;;;;;5006593;28;20038;-79
2022/07/25 05:41:28;;;;;;;13.55;10.35;;;20.70;99.90;;;;;;5005804;28;20141;-79
2022/07/25 05:43:54;;;;;;;14.68;9.73;;;20.80;99.90;;;;;;5004682;28;20038;-80
2022/07/25 05:46:19;;;;;;;12.93;10.77;;;20.80;99.90;;;;;;5003608;28;20080;-79
2022/07/25 05:48:45;;;;;;;12.98;10.55;;;20.90;99.90;;;;;;5003746;28;20057;-79
2022/07/25 05:51:11;;;;;;;14.50;10.50;;;21.00;99.90;;;;;;5015060;28;20061;-79
2022/07/25 05:53:37;;;;;;;12.82;10.77;;;21.10;99.90;;;;;;4985536;28;20120;-79
2022/07/25 05:56:04;;;;;;;19.23;11.20;;;21.20;99.90;;;;;;5000864;28;20047;-79
2022/07/25 05:58:30;;;;;;;11.65;10.45;;;21.20;99.90;;;;;;4998753;28;20133;-78
2022/07/25 06:00:56;;;;;;;11.43;9.05;;;21.30;99.90;;;;;;5001459;28;20132;-78
2022/07/25 06:03:22;;;;;;;11.55;9.60;;;21.40;99.90;;;;;;4999637;28;20034;-79
2022/07/25 06:05:48;;;;;;;11.60;8.82;;;21.50;99.90;;;;;;4999594;28;20061;-79
2022/07/25 06:08:14;;;;;;;9.82;8.77;;;21.60;99.90;;;;;;5000415;28;20415;-79
2022/07/25 06:10:40;;;;;;;11.75;9.52;;;21.80;99.90;;;;;;5002839;28;20557;-79
2022/07/25 06:13:06;;;;;;;11.10;8.43;;;21.90;99.90;;;;;;4998022;28;20254;-79
2022/07/25 06:15:32;;;;;;;12.95;9.23;;;22.00;99.90;;;;;;4989263;28;20037;-79
2022/07/25 06:17:58;;;;;;;10.57;8.77;;;22.10;99.90;;;;;;5003882;28;20490;-79
2022/07/25 06:20:24;;;;;;;13.68;9.35;;;22.20;99.90;;;;;;4985771;28;20038;-79
2022/07/25 06:22:49;;;;;;;11.68;8.45;;;22.30;99.90;;;;;;5001975;28;20069;-79
2022/07/25 06:25:15;;;;;;;10.63;9.23;;;22.40;99.90;;;;;;5006430;28;20049;-79
2022/07/25 06:27:41;;;;;;;9.68;8.68;;;22.40;99.90;;;;;;5000356;28;20049;-79
2022/07/25 06:30:08;;;;;;;11.52;8.63;;;22.50;99.90;;;;;;5006150;28;20034;-80
2022/07/25 06:32:34;;;;;;;9.38;8.38;;;22.60;99.90;;;;;;4983080;28;20100;-80
2022/07/25 06:35:00;;;;;;;12.40;9.15;;;22.60;99.90;;;;;;5004240;28;20038;-80
2022/07/25 06:37:26;;;;;;;9.07;7.90;;;22.70;99.90;;;;;;5001091;28;20580;-80
2022/07/25 06:39:51;;;;;;;13.20;8.75;;;22.80;99.90;;;;;;4981534;28;20037;-80
2022/07/25 06:42:17;;;;;;;11.48;8.18;;;22.90;99.90;;;;;;4995581;28;20518;-80
2022/07/25 06:44:43;;;;;;;12.95;8.13;;;22.90;99.90;;;;;;5001668;28;20038;-80
2022/07/25 06:47:11;;;;;;;10.23;7.55;;;22.90;99.90;;;;;;5006591;28;20822;-81
2022/07/25 06:49:43;;;;;;;11.65;8.25;;;22.90;99.90;;;;;;4993635;28;20083;-81
2022/07/25 06:52:09;;;;;;;12.98;8.05;;;22.80;99.90;;;;;;4990980;28;20042;-81
2022/07/25 06:54:35;;;;;;;11.75;8.13;;;22.80;99.90;;;;;;4992019;28;20041;-80
2022/07/25 06:57:01;;;;;;;10.98;8.45;;;22.90;99.90;;;;;;4991520;28;20057;-80
2022/07/25 06:59:27;;;;;;;10.82;8.18;;;22.90;99.90;;;;;;5019723;28;20061;-80
2022/07/25 07:01:52;;;;;;;9.95;7.80;;;23.10;99.90;;;;;;4999395;28;20046;-81
2022/07/25 07:04:18;;;;;;;9.82;8.60;;;23.20;99.90;;;;;;5005935;28;20045;-81
2022/07/25 07:06:44;;;;;;;10.82;8.85;;;23.30;99.90;;;;;;4980952;28;20042;-81
2022/07/25 07:09:10;;;;;;;10.85;8.40;;;23.40;99.90;;;;;;4995258;28;20040;-80
2022/07/25 07:11:35;;;;;;;9.90;8.07;;;23.50;99.90;;;;;;4999098;28;20491;-81
2022/07/25 07:14:02;;;;;;;11.85;8.27;;;23.60;99.90;;;;;;5000883;28;20067;-80
2022/07/25 07:16:29;;;;;;;13.70;8.73;;;23.70;99.90;;;;;;5004380;28;20128;-81
2022/07/25 07:18:55;;;;;;;12.93;9.20;;;23.90;99.90;;;;;;4995464;28;20048;-80
2022/07/25 07:21:21;;;;;;;12.82;7.75;;;24.00;99.90;;;;;;5023322;28;20037;-81
2022/07/25 07:23:47;;;;;;;9.68;8.05;;;24.10;99.90;;;;;;5003191;28;20047;-80
2022/07/25 07:26:13;;;;;;;8.65;7.72;;;24.30;99.90;;;;;;5009566;28;20037;-80
2022/07/25 07:28:39;;;;;;;10.30;7.88;;;24.40;99.90;;;;;;5002424;28;20572;-80
2022/07/25 07:31:05;;;;;;;11.40;8.32;;;24.60;99.90;;;;;;4995087;28;20060;-80
2022/07/25 07:33:34;;;;;;;12.73;8.73;;;24.80;99.90;;;;;;4997733;28;20262;-81
2022/07/25 07:36:00;;;;;;;11.23;9.40;;;24.90;99.90;;;;;;4990496;28;20100;-81
2022/07/25 07:38:26;;;;;;;12.43;8.50;;;24.90;99.90;;;;;;4996997;28;20409;-80
2022/07/25 07:40:53;;;;;;;12.77;9.88;;;25.00;99.90;;;;;;4987303;28;20046;-80
2022/07/25 07:43:19;;;;;;;13.48;9.27;;;25.10;99.90;;;;;;4997901;28;20132;-81
2022/07/25 07:45:45;;;;;;;13.52;10.32;;;25.10;99.90;;;;;;4988105;28;20044;-81
2022/07/25 07:48:11;;;;;;;12.85;10.48;;;25.20;99.90;;;;;;4997535;28;20033;-79
2022/07/25 07:50:37;;;;;;;13.45;11.15;;;25.30;99.90;;;;;;4986463;28;20033;-80
2022/07/25 07:53:06;;;;;;;12.63;10.32;;;25.30;99.90;;;;;;4989774;28;20052;-80
2022/07/25 07:55:44;;;;;;;13.60;10.40;;;25.20;99.90;;;;;;4994538;28;20045;-81
2022/07/25 07:58:11;;;;;;;12.73;10.48;;;25.30;99.90;;;;;;5003095;28;20519;-81
2022/07/25 08:00:38;;;;;;;14.80;11.27;;;25.50;99.90;;;;;;5008361;28;20501;-80
2022/07/25 08:03:07;;;;;;;11.77;9.43;;;25.60;99.90;;;;;;4989035;28;20045;-80
2022/07/25 08:05:38;;;;;;;12.10;9.70;;;25.70;99.90;;;;;;4993784;28;20501;-80
2022/07/25 08:08:05;;;;;;;12.88;9.38;;;25.80;99.90;;;;;;4990020;28;20045;-81
2022/07/25 08:10:35;;;;;;;12.57;10.85;;;25.90;99.90;;;;;;4990203;28;20141;-79
2022/07/25 08:13:02;;;;;;;12.85;9.70;;;25.90;99.90;;;;;;4979935;28;20038;-79
2022/07/25 08:15:28;;;;;;;11.27;9.50;;;25.90;99.90;;;;;;5008579;28;20042;-77
2022/07/25 08:17:54;;;;;;;11.85;10.27;;;26.00;99.90;;;;;;4979107;28;20091;-78
2022/07/25 08:20:23;;;;;;;14.10;9.65;;;26.00;99.90;;;;;;4988441;28;20046;-78
2022/07/25 08:22:50;;;;;;;12.85;9.85;;;25.90;99.90;;;;;;4993081;28;20065;-78
2022/07/25 08:25:18;;;;;;;10.93;9.00;;;25.80;99.90;;;;;;4990495;28;20088;-78
2022/07/25 08:27:45;;;;;;;14.05;9.60;;;25.80;99.90;;;;;;5012418;28;20108;-78
2022/07/25 08:30:13;;;;;;;12.38;9.45;;;25.80;99.90;;;;;;4990236;28;20046;-78
2022/07/25 08:32:55;;;;;;;11.73;9.43;;;25.70;99.90;;;;;;4995082;28;20068;-77
2022/07/25 08:35:23;;;;;;;12.98;9.77;;;25.70;99.90;;;;;;5008102;28;20038;-77
2022/07/25 08:37:52;;;;;;;12.60;9.43;;;25.70;99.90;;;;;;4995036;28;20071;-79
2022/07/25 08:40:20;;;;;;;11.07;8.90;;;25.70;99.90;;;;;;4974986;28;20725;-78
2022/07/25 08:42:47;;;;;;;13.70;10.00;;;25.70;99.90;;;;;;4988952;28;20030;-77
2022/07/25 08:45:15;;;;;;;13.70;10.18;;;25.60;99.90;;;;;;5004793;28;20065;-78
2022/07/25 08:47:41;;;;;;;14.13;9.95;;;25.50;99.90;;;;;;4995598;28;20046;-80
2022/07/25 08:50:13;;;;;;;15.95;10.63;;;25.40;99.90;;;;;;4993886;28;20658;-81
2022/07/25 08:52:48;;;;;;;16.90;10.77;;;25.20;99.90;;;;;;4993419;28;20120;-80
2022/07/25 08:55:18;;;;;;;11.32;10.07;;;25.10;99.90;;;;;;4991447;28;20491;-80
2022/07/25 08:57:46;;;;;;;14.77;9.57;;;25.10;99.90;;;;;;4990055;28;20042;-80
2022/07/25 09:00:17;;;;;;;13.70;10.50;;;25.10;99.90;;;;;;4969625;28;20045;-80
2022/07/25 09:02:42;;;;;;;18.10;10.07;;;25.20;99.90;;;;;;4998989;28;20133;-79
2022/07/25 09:05:09;;;;;;;11.38;9.68;;;25.30;99.90;;;;;;4984335;28;20113;-79
2022/07/25 09:07:37;;;;;;;15.15;11.00;;;25.30;99.90;;;;;;5002712;28;20517;-79
2022/07/25 09:10:13;;;;;;;12.88;9.32;;;25.30;99.90;;;;;;5010213;28;20057;-80
2022/07/25 09:12:54;;;;;;;10.68;9.55;;;25.20;99.90;;;;;;4988363;28;20053;-80
2022/07/25 09:15:28;;;;;;;13.88;8.45;;;25.10;99.90;;;;;;4972370;28;20042;-80
2022/07/25 09:17:55;;;;;;;13.18;6.97;;;25.00;99.90;;;;;;5004612;28;20455;-80
2022/07/25 09:20:22;;;;;;;10.35;6.40;;;24.90;99.90;;;;;;5010457;28;20065;-80
2022/07/25 09:22:48;;;;;;;8.82;6.18;;;24.80;99.90;;;;;;4991156;28;20041;-79
2022/07/25 09:25:20;;;;;;;9.05;5.88;;;24.70;99.90;;;;;;5008526;28;20119;-79
2022/07/25 09:27:46;;;;;;;7.72;6.10;;;24.60;99.90;;;;;;4996071;28;20529;-79
2022/07/25 09:30:14;;;;;;;6.55;5.47;;;24.70;99.90;;;;;;4993046;28;20033;-79
2022/07/25 09:32:39;;;;;;;6.30;5.65;;;24.70;99.90;;;;;;5004751;28;20061;-79
2022/07/25 09:35:05;;;;;;;7.38;5.28;;;24.70;99.90;;;;;;4983030;28;20041;-78
2022/07/25 09:37:31;;;;;;;6.72;5.38;;;24.60;99.90;;;;;;4983060;28;20487;-79
2022/07/25 09:39:57;;;;;;;7.47;5.28;;;24.50;99.90;;;;;;4982842;28;20049;-79
2022/07/25 09:42:30;;;;;;;4.78;4.28;;;24.50;99.90;;;;;;5001963;28;20521;-79
2022/07/25 09:45:11;;;;;;;8.88;5.38;;;24.40;99.90;;;;;;4999136;28;20026;-78
2022/07/25 09:47:55;;;;;;;7.05;5.13;;;24.40;99.90;;;;;;4988279;28;20092;-79
2022/07/25 09:50:23;;;;;;;5.78;5.18;;;24.40;99.90;;;;;;4988564;28;20034;-78
2022/07/25 09:52:51;;;;;;;7.57;5.15;;;24.40;99.90;;;;;;4990011;28;20049;-79
2022/07/25 09:55:17;;;;;;;7.80;5.13;;;24.50;99.90;;;;;;4987560;28;20109;-79
2022/07/25 09:57:46;;;;;;;6.22;5.32;;;24.50;99.90;;;;;;4991453;28;20061;-78
2022/07/25 10:00:14;;;;;;;7.85;5.55;;;24.50;99.90;;;;;;4986382;28;20124;-79
2022/07/25 10:02:41;;;;;;;9.80;5.90;;;24.60;99.90;;;;;;4990716;28;20550;-79
2022/07/25 10:05:38;;;;;;;9.18;5.63;;;24.60;99.90;;;;;;4993139;28;20613;-79
2022/07/25 10:08:10;;;;;;;6.28;5.47;;;24.60;99.90;;;;;;5003200;28;20120;-80
2022/07/25 10:10:38;;;;;;;7.32;5.65;;;24.60;99.90;;;;;;4988088;28;20395;-78
2022/07/25 10:13:10;;;;;;;10.52;6.25;;;24.70;99.90;;;;;;4988370;28;20041;-80
2022/07/25 10:15:44;;;;;;;7.97;5.90;;;25.10;99.90;;;;;;5005809;28;20052;-79
2022/07/25 10:18:12;;;;;;;7.75;5.22;;;25.30;99.90;;;;;;4990793;28;20034;-79
2022/07/25 10:20:38;;;;;;;5.40;4.28;;;25.60;99.90;;;;;;5006392;28;20041;-79
2022/07/25 10:23:04;;;;;;;6.05;3.70;;;25.80;99.90;;;;;;4990384;28;20076;-79
2022/07/25 10:25:30;;;;;;;6.63;3.88;;;25.70;99.60;;;;;;4987735;28;20053;-79
2022/07/25 10:28:07;;;;;;;5.78;3.92;;;25.50;99.50;;;;;;5007156;28;20034;-78
2022/07/25 10:30:38;;;;;;;8.60;3.85;;;25.30;99.80;;;;;;5002225;28;20069;-79
2022/07/25 10:33:11;;;;;;;6.32;3.75;;;25.10;99.90;;;;;;4986212;28;20040;-79
2022/07/25 10:35:37;;;;;;;5.05;3.60;;;24.90;99.90;;;;;;4988164;28;20064;-79
2022/07/25 10:38:04;;;;;;;5.68;3.47;;;24.80;99.90;;;;;;4997277;28;20038;-79
2022/07/25 10:40:38;;;;;;;6.53;3.20;;;24.80;99.90;;;;;;4991500;28;20053;-79
2022/07/25 10:43:04;;;;;;;4.30;2.92;;;24.70;99.90;;;;;;4993260;28;20450;-80
2022/07/25 10:45:40;;;;;;;4.57;3.00;;;24.70;99.90;;;;;;4991338;28;20042;-79
2022/07/25 10:48:28;;;;;;;3.28;2.45;;;24.80;99.60;;;;;;5009502;28;20148;-80
2022/07/25 10:51:02;;;;;;;3.38;2.30;;;24.80;99.70;;;;;;4991132;28;20245;-79
2022/07/25 10:53:32;;;;;;;3.58;2.40;;;24.70;99.50;;;;;;5000466;28;20501;-79
2022/07/25 10:56:06;;;;;;;3.95;2.70;;;24.80;99.60;;;;;;4986991;28;20041;-80
2022/07/25 10:58:51;;;;;;;3.95;2.70;;;24.80;99.50;;;;;;5003395;28;20066;-79
2022/07/25 11:01:22;;;;;;;5.97;3.03;;;24.90;99.00;;;;;;4991101;28;20045;-79
2022/07/25 11:03:49;;;;;;;2.83;2.53;;;25.00;99.30;;;;;;4990339;28;21167;-80
2022/07/25 11:06:16;;;;;;;3.33;2.22;;;25.10;99.60;;;;;;4988266;28;20675;-79
2022/07/25 11:08:43;;;;;;;5.97;2.50;;;25.20;99.40;;;;;;4985349;28;20495;-78
2022/07/25 11:11:11;;;;;;;5.60;2.38;;;25.10;99.40;;;;;;4993646;28;20041;-79
2022/07/25 11:13:41;;;;;;;5.03;2.40;;;25.20;99.60;;;;;;4987947;28;20053;-80
2022/07/25 11:16:08;;;;;;;3.22;2.35;;;25.20;99.90;;;;;;4993825;28;20053;-79
2022/07/25 11:18:39;;;;;;;3.35;2.25;;;25.40;99.90;;;;;;4974565;28;20041;-79
2022/07/25 11:21:08;;;;;;;4.70;2.47;;;25.50;99.90;;;;;;4986729;28;20525;-79
2022/07/25 11:23:34;;;;;;;3.35;2.28;;;25.40;99.80;;;;;;4989618;28;20040;-79
2022/07/25 11:26:11;;;;;;;3.13;2.10;;;25.30;99.70;;;;;;4985673;28;20057;-79
2022/07/25 11:28:41;;;;;;;2.58;1.85;;;25.00;99.50;;;;;;5002085;28;20037;-78
2022/07/25 11:31:07;;;;;;;6.00;2.10;;;24.90;99.70;;;;;;4977696;28;20041;-78
2022/07/25 11:33:34;;;;;;;3.15;1.70;;;24.60;99.90;;;;;;4988534;28;20046;-79
2022/07/25 11:36:00;;;;;;;3.75;2.03;;;24.30;99.90;;;;;;4969102;28;20069;-79
2022/07/25 11:38:27;;;;;;;3.00;1.90;;;24.10;99.90;;;;;;5001949;28;20056;-79
2022/07/25 11:40:53;;;;;;;3.00;1.85;;;24.00;99.90;;;;;;4995348;28;20414;-79
2022/07/25 11:43:20;;;;;;;4.43;2.28;;;23.90;99.90;;;;;;4977763;28;20514;-79
2022/07/25 11:46:02;;;;;;;2.10;1.90;;;23.90;99.90;;;;;;4984546;28;20893;-78
2022/07/25 11:48:37;;;;;;;3.35;2.10;;;23.90;99.90;;;;;;4994425;28;20089;-79
2022/07/25 11:51:12;;;;;;;3.00;1.80;;;24.00;99.90;;;;;;4976160;28;20048;-79
2022/07/25 11:53:49;;;;;;;2.03;1.77;;;24.10;99.90;;;;;;4980069;28;20651;-79
2022/07/25 11:56:21;;;;;;;4.53;2.00;;;24.10;99.90;;;;;;4973655;28;20100;-79
2022/07/25 11:58:58;;;;;;;2.72;1.98;;;24.20;99.90;;;;;;4988095;28;20048;-79
2022/07/25 12:01:34;;;;;;;3.63;1.85;;;24.30;99.90;;;;;;4972752;28;20038;-78
2022/07/25 12:04:14;;;;;;;3.80;2.08;;;24.30;99.90;;;;;;4988820;28;20050;-79
2022/07/25 12:06:45;;;;;;;4.88;2.33;;;24.10;99.90;;;;;;4988556;28;20034;-78
2022/07/25 12:09:20;;;;;;;6.70;2.42;;;24.10;99.90;;;;;;4987471;28;20475;-78
2022/07/25 12:11:48;;;;;;;4.57;2.40;;;24.20;99.90;;;;;;4988480;28;20054;-79
2022/07/25 12:14:18;;;;;;;7.22;2.92;;;24.10;99.90;;;;;;5001646;28;20463;-78
2022/07/25 12:16:43;;;;;;;5.38;2.53;;;24.10;99.90;;;;;;4988675;28;20071;-78
2022/07/25 12:19:20;;;;;;;6.57;3.20;;;24.10;99.90;;;;;;4981095;28;20046;-78
2022/07/25 12:21:46;;;;;;;5.40;2.60;;;24.10;99.90;;;;;;5010611;28;20092;-78
2022/07/25 12:24:15;;;;;;;5.07;2.63;;;24.10;99.90;;;;;;4972407;28;20042;-79
2022/07/25 12:26:40;;;;;;;8.18;3.13;;;24.00;99.90;;;;;;4984067;28;20042;-78
2022/07/25 12:29:09;;;;;;;4.65;2.60;;;24.00;99.90;;;;;;4993952;28;20628;-78
2022/07/25 12:31:35;;;;;;;10.52;3.33;;;24.00;99.90;;;;;;4987311;28;20509;-78
2022/07/25 12:34:03;;;;;;;6.60;2.88;;;24.00;99.90;;;;;;5007656;28;20041;-78
2022/07/25 12:36:29;;;;;;;6.43;2.70;;;24.10;99.90;;;;;;5005657;28;20033;-78